sensor_id;sensor_type;location;lat;lon;timestamp;P1;durP1;ratioP1;P2;durP2;ratioP2
72601;SDS011;60644;55.858;37.390;2022-07-25T00:01:49;7.77;;;5.17;;
72601;SDS011;60644;55.858;37.390;2022-07-25T00:04:15;8.25;;;4.50;;
72601;SDS011;60644;55.858;37.390;2022-07-25T00:06:41;8.18;;;4.70;;
72601;SDS011;60644;55.858;37.390;2022-07-25T00:09:08;11.73;;;6.93;;
72601;SDS011;60644;55.858;37.390;2022-07-25T00:11:34;10.07;;;5.50;;
72601;SDS011;60644;55.858;37.390;2022-07-25T00:14:00;8.90;;;6.37;;
72601;SDS011;60644;55.858;37.390;2022-07-25T00:16:26;8.32;;;5.63;;
72601;SDS011;60644;55.858;37.390;2022-07-25T00:18:52;8.23;;;4.68;;
72601;SDS011;60644;55.858;37.390;2022-07-25T00:21:18;8.20;;;4.47;;
72601;SDS011;60644;55.858;37.390;2022-07-25T00:23:44;8.27;;;5.18;;
72601;SDS011;60644;55.858;37.390;2022-07-25T00:26:09;8.55;;;6.03;;
72601;SDS011;60644;55.858;37.390;2022-07-25T00:28:35;9.40;;;6.73;;
72601;SDS011;60644;55.858;37.390;2022-07-25T00:31:01;12.88;;;8.10;;
72601;SDS011;60644;55.858;37.390;2022-07-25T00:33:27;10.32;;;6.75;;
72601;SDS011;60644;55.858;37.390;2022-07-25T00:35:53;10.07;;;6.63;;
72601;SDS011;60644;55.858;37.390;2022-07-25T00:38:19;10.77;;;7.25;;
72601;SDS011;60644;55.858;37.390;2022-07-25T00:40:45;12.88;;;8.18;;
72601;SDS011;60644;55.858;37.390;2022-07-25T00:43:11;13.77;;;8.57;;
72601;SDS011;60644;55.858;37.390;2022-07-25T00:45:37;12.27;;;8.17;;
72601;SDS011;60644;55.858;37.390;2022-07-25T00:48:03;8.35;;;5.47;;
72601;SDS011;60644;55.858;37.390;2022-07-25T00:50:29;9.45;;;4.43;;
72601;SDS011;60644;55.858;37.390;2022-07-25T00:52:55;8.55;;;4.82;;
72601;SDS011;60644;55.858;37.390;2022-07-25T00:55:22;10.77;;;7.67;;
72601;SDS011;60644;55.858;37.390;2022-07-25T00:57:49;10.60;;;7.05;;
72601;SDS011;60644;55.858;37.390;2022-07-25T01:00:15;9.30;;;6.53;;
72601;SDS011;60644;55.858;37.390;2022-07-25T01:02:42;10.15;;;5.72;;
72601;SDS011;60644;55.858;37.390;2022-07-25T01:05:09;8.40;;;5.80;;
72601;SDS011;60644;55.858;37.390;2022-07-25T01:07:35;11.77;;;5.23;;
72601;SDS011;60644;55.858;37.390;2022-07-25T01:10:03;8.52;;;4.45;;
72601;SDS011;60644;55.858;37.390;2022-07-25T01:12:29;7.35;;;4.40;;
72601;SDS011;60644;55.858;37.390;2022-07-25T01:14:56;8.52;;;4.65;;
72601;SDS011;60644;55.858;37.390;2022-07-25T01:17:23;8.13;;;3.92;;
72601;SDS011;60644;55.858;37.390;2022-07-25T01:19:49;8.30;;;4.40;;
72601;SDS011;60644;55.858;37.390;2022-07-25T01:22:17;7.65;;;4.68;;
72601;SDS011;60644;55.858;37.390;2022-07-25T01:24:43;9.80;;;5.65;;
72601;SDS011;60644;55.858;37.390;2022-07-25T01:27:09;8.20;;;5.07;;
72601;SDS011;60644;55.858;37.390;2022-07-25T01:29:35;10.47;;;4.60;;
72601;SDS011;60644;55.858;37.390;2022-07-25T01:32:01;8.02;;;4.97;;
72601;SDS011;60644;55.858;37.390;2022-07-25T01:34:26;8.57;;;5.30;;
72601;SDS011;60644;55.858;37.390;2022-07-25T01:36:52;7.33;;;4.60;;
72601;SDS011;60644;55.858;37.390;2022-07-25T01:39:18;9.10;;;5.90;;
72601;SDS011;60644;55.858;37.390;2022-07-25T01:41:44;11.25;;;6.70;;
72601;SDS011;60644;55.858;37.390;2022-07-25T01:44:10;10.03;;;6.30;;
72601;SDS011;60644;55.858;37.390;2022-07-25T01:46:36;10.82;;;7.10;;
72601;SDS011;60644;55.858;37.390;2022-07-25T01:49:02;9.55;;;5.75;;
72601;SDS011;60644;55.858;37.390;2022-07-25T01:51:28;8.93;;;5.33;;
72601;SDS011;60644;55.858;37.390;2022-07-25T01:53:54;8.88;;;5.70;;
72601;SDS011;60644;55.858;37.390;2022-07-25T01:56:20;11.43;;;5.40;;
72601;SDS011;60644;55.858;37.390;2022-07-25T01:58:46;9.40;;;6.38;;
72601;SDS011;60644;55.858;37.390;2022-07-25T02:01:12;10.80;;;5.20;;
72601;SDS011;60644;55.858;37.390;2022-07-25T02:03:38;7.53;;;5.03;;
72601;SDS011;60644;55.858;37.390;2022-07-25T02:06:05;9.00;;;5.17;;
72601;SDS011;60644;55.858;37.390;2022-07-25T02:08:32;8.70;;;5.45;;
72601;SDS011;60644;55.858;37.390;2022-07-25T02:10:58;9.43;;;4.95;;
72601;SDS011;60644;55.858;37.390;2022-07-25T02:13:24;9.63;;;5.45;;
72601;SDS011;60644;55.858;37.390;2022-07-25T02:15:51;12.20;;;6.20;;
72601;SDS011;60644;55.858;37.390;2022-07-25T02:18:17;11.93;;;6.27;;
72601;SDS011;60644;55.858;37.390;2022-07-25T02:20:43;9.18;;;5.43;;
72601;SDS011;60644;55.858;37.390;2022-07-25T02:23:09;10.52;;;6.30;;
72601;SDS011;60644;55.858;37.390;2022-07-25T02:25:36;11.63;;;5.32;;
72601;SDS011;60644;55.858;37.390;2022-07-25T02:28:02;7.95;;;5.30;;
72601;SDS011;60644;55.858;37.390;2022-07-25T02:30:28;8.50;;;5.27;;
72601;SDS011;60644;55.858;37.390;2022-07-25T02:32:54;8.63;;;4.85;;
72601;SDS011;60644;55.858;37.390;2022-07-25T02:35:20;9.73;;;4.80;;
72601;SDS011;60644;55.858;37.390;2022-07-25T02:37:46;10.57;;;4.78;;
72601;SDS011;60644;55.858;37.390;2022-07-25T02:40:12;8.53;;;4.90;;
72601;SDS011;60644;55.858;37.390;2022-07-25T02:42:38;8.45;;;4.93;;
72601;SDS011;60644;55.858;37.390;2022-07-25T02:45:04;9.18;;;5.22;;
72601;SDS011;60644;55.858;37.390;2022-07-25T02:47:31;9.43;;;4.68;;
72601;SDS011;60644;55.858;37.390;2022-07-25T02:49:57;7.93;;;4.83;;
72601;SDS011;60644;55.858;37.390;2022-07-25T02:52:22;9.73;;;5.20;;
72601;SDS011;60644;55.858;37.390;2022-07-25T02:54:49;7.85;;;4.90;;
72601;SDS011;60644;55.858;37.390;2022-07-25T02:57:15;8.80;;;4.90;;
72601;SDS011;60644;55.858;37.390;2022-07-25T02:59:41;12.20;;;5.07;;
72601;SDS011;60644;55.858;37.390;2022-07-25T03:02:07;8.90;;;5.00;;
72601;SDS011;60644;55.858;37.390;2022-07-25T03:04:33;9.20;;;5.30;;
72601;SDS011;60644;55.858;37.390;2022-07-25T03:06:59;9.65;;;5.80;;
72601;SDS011;60644;55.858;37.390;2022-07-25T03:09:25;9.82;;;5.90;;
72601;SDS011;60644;55.858;37.390;2022-07-25T03:11:51;9.23;;;5.27;;
72601;SDS011;60644;55.858;37.390;2022-07-25T03:14:17;8.18;;;5.35;;
72601;SDS011;60644;55.858;37.390;2022-07-25T03:16:43;10.27;;;5.93;;
72601;SDS011;60644;55.858;37.390;2022-07-25T03:19:09;9.60;;;5.77;;
72601;SDS011;60644;55.858;37.390;2022-07-25T03:21:37;9.50;;;5.88;;
72601;SDS011;60644;55.858;37.390;2022-07-25T03:24:03;11.50;;;6.20;;
72601;SDS011;60644;55.858;37.390;2022-07-25T03:26:29;9.50;;;5.68;;
72601;SDS011;60644;55.858;37.390;2022-07-25T03:28:55;9.63;;;5.37;;
72601;SDS011;60644;55.858;37.390;2022-07-25T03:31:21;10.48;;;5.50;;
72601;SDS011;60644;55.858;37.390;2022-07-25T03:33:47;9.48;;;5.85;;
72601;SDS011;60644;55.858;37.390;2022-07-25T03:36:13;9.63;;;6.15;;
72601;SDS011;60644;55.858;37.390;2022-07-25T03:38:39;13.30;;;5.87;;
72601;SDS011;60644;55.858;37.390;2022-07-25T03:41:05;10.57;;;6.15;;
72601;SDS011;60644;55.858;37.390;2022-07-25T03:43:31;9.90;;;6.30;;
72601;SDS011;60644;55.858;37.390;2022-07-25T03:45:56;9.57;;;5.77;;
72601;SDS011;60644;55.858;37.390;2022-07-25T03:48:22;9.80;;;5.82;;
72601;SDS011;60644;55.858;37.390;2022-07-25T03:50:48;10.73;;;6.53;;
72601;SDS011;60644;55.858;37.390;2022-07-25T03:53:14;10.37;;;6.20;;
72601;SDS011;60644;55.858;37.390;2022-07-25T03:55:40;10.60;;;6.00;;
72601;SDS011;60644;55.858;37.390;2022-07-25T03:58:06;9.27;;;6.20;;
72601;SDS011;60644;55.858;37.390;2022-07-25T04:00:32;9.53;;;5.90;;
72601;SDS011;60644;55.858;37.390;2022-07-25T04:02:58;9.15;;;5.82;;
72601;SDS011;60644;55.858;37.390;2022-07-25T04:05:23;8.70;;;6.00;;
72601;SDS011;60644;55.858;37.390;2022-07-25T04:07:49;9.43;;;6.40;;
72601;SDS011;60644;55.858;37.390;2022-07-25T04:10:15;9.25;;;6.05;;
72601;SDS011;60644;55.858;37.390;2022-07-25T04:12:41;9.95;;;6.03;;
72601;SDS011;60644;55.858;37.390;2022-07-25T04:15:07;9.20;;;5.73;;
72601;SDS011;60644;55.858;37.390;2022-07-25T04:17:34;9.47;;;5.70;;
72601;SDS011;60644;55.858;37.390;2022-07-25T04:20:00;8.82;;;5.68;;
72601;SDS011;60644;55.858;37.390;2022-07-25T04:22:26;10.98;;;5.68;;
72601;SDS011;60644;55.858;37.390;2022-07-25T04:24:52;9.98;;;6.28;;
72601;SDS011;60644;55.858;37.390;2022-07-25T04:27:18;9.13;;;5.93;;
72601;SDS011;60644;55.858;37.390;2022-07-25T04:29:44;8.75;;;6.10;;
72601;SDS011;60644;55.858;37.390;2022-07-25T04:32:10;12.32;;;6.05;;
72601;SDS011;60644;55.858;37.390;2022-07-25T04:34:36;10.43;;;6.03;;
72601;SDS011;60644;55.858;37.390;2022-07-25T04:37:02;9.80;;;6.30;;
72601;SDS011;60644;55.858;37.390;2022-07-25T04:39:27;8.63;;;5.85;;
72601;SDS011;60644;55.858;37.390;2022-07-25T04:41:53;9.60;;;6.20;;
72601;SDS011;60644;55.858;37.390;2022-07-25T04:44:19;10.18;;;6.45;;
72601;SDS011;60644;55.858;37.390;2022-07-25T04:46:45;10.40;;;6.55;;
72601;SDS011;60644;55.858;37.390;2022-07-25T04:49:11;9.13;;;6.13;;
72601;SDS011;60644;55.858;37.390;2022-07-25T04:51:37;10.35;;;6.43;;
72601;SDS011;60644;55.858;37.390;2022-07-25T04:54:03;8.55;;;5.75;;
72601;SDS011;60644;55.858;37.390;2022-07-25T04:56:29;9.18;;;5.80;;
72601;SDS011;60644;55.858;37.390;2022-07-25T04:58:55;9.17;;;5.90;;
72601;SDS011;60644;55.858;37.390;2022-07-25T05:01:21;11.38;;;6.32;;
72601;SDS011;60644;55.858;37.390;2022-07-25T05:03:47;8.90;;;6.65;;
72601;SDS011;60644;55.858;37.390;2022-07-25T05:06:13;9.50;;;6.77;;
72601;SDS011;60644;55.858;37.390;2022-07-25T05:08:39;11.30;;;6.07;;
72601;SDS011;60644;55.858;37.390;2022-07-25T05:11:04;11.68;;;6.38;;
72601;SDS011;60644;55.858;37.390;2022-07-25T05:13:31;8.93;;;6.00;;
72601;SDS011;60644;55.858;37.390;2022-07-25T05:15:57;10.47;;;5.20;;
72601;SDS011;60644;55.858;37.390;2022-07-25T05:18:22;8.63;;;5.55;;
72601;SDS011;60644;55.858;37.390;2022-07-25T05:20:48;8.43;;;5.70;;
72601;SDS011;60644;55.858;37.390;2022-07-25T05:23:14;8.95;;;6.13;;
72601;SDS011;60644;55.858;37.390;2022-07-25T05:25:40;11.10;;;6.07;;
72601;SDS011;60644;55.858;37.390;2022-07-25T05:28:06;11.03;;;6.63;;
72601;SDS011;60644;55.858;37.390;2022-07-25T05:30:32;9.20;;;6.07;;
72601;SDS011;60644;55.858;37.390;2022-07-25T05:32:58;8.93;;;6.25;;
72601;SDS011;60644;55.858;37.390;2022-07-25T05:35:24;11.70;;;6.10;;
72601;SDS011;60644;55.858;37.390;2022-07-25T05:37:50;9.70;;;5.90;;
72601;SDS011;60644;55.858;37.390;2022-07-25T05:40:15;9.63;;;5.93;;
72601;SDS011;60644;55.858;37.390;2022-07-25T05:42:43;9.27;;;6.03;;
72601;SDS011;60644;55.858;37.390;2022-07-25T05:45:09;8.23;;;5.95;;
72601;SDS011;60644;55.858;37.390;2022-07-25T05:47:35;9.27;;;6.25;;
72601;SDS011;60644;55.858;37.390;2022-07-25T05:50:01;10.60;;;6.30;;
72601;SDS011;60644;55.858;37.390;2022-07-25T05:52:29;9.55;;;5.93;;
72601;SDS011;60644;55.858;37.390;2022-07-25T05:54:54;8.63;;;5.55;;
72601;SDS011;60644;55.858;37.390;2022-07-25T05:57:20;9.60;;;6.07;;
72601;SDS011;60644;55.858;37.390;2022-07-25T05:59:46;9.02;;;6.00;;
72601;SDS011;60644;55.858;37.390;2022-07-25T06:02:12;10.60;;;6.13;;
72601;SDS011;60644;55.858;37.390;2022-07-25T06:04:38;8.40;;;5.73;;
72601;SDS011;60644;55.858;37.390;2022-07-25T06:07:04;7.97;;;5.55;;
72601;SDS011;60644;55.858;37.390;2022-07-25T06:09:30;9.57;;;5.80;;
72601;SDS011;60644;55.858;37.390;2022-07-25T06:11:56;8.77;;;6.03;;
72601;SDS011;60644;55.858;37.390;2022-07-25T06:14:22;9.87;;;5.77;;
72601;SDS011;60644;55.858;37.390;2022-07-25T06:16:48;9.63;;;6.15;;
72601;SDS011;60644;55.858;37.390;2022-07-25T06:19:14;10.63;;;6.03;;
72601;SDS011;60644;55.858;37.390;2022-07-25T06:21:39;9.10;;;6.10;;
72601;SDS011;60644;55.858;37.390;2022-07-25T06:24:05;9.88;;;6.50;;
72601;SDS011;60644;55.858;37.390;2022-07-25T06:26:31;10.13;;;6.57;;
72601;SDS011;60644;55.858;37.390;2022-07-25T06:28:57;9.53;;;6.47;;
72601;SDS011;60644;55.858;37.390;2022-07-25T06:31:23;10.98;;;5.85;;
72601;SDS011;60644;55.858;37.390;2022-07-25T06:33:49;9.25;;;5.70;;
72601;SDS011;60644;55.858;37.390;2022-07-25T06:36:15;10.13;;;6.38;;
72601;SDS011;60644;55.858;37.390;2022-07-25T06:38:41;9.67;;;5.73;;
72601;SDS011;60644;55.858;37.390;2022-07-25T06:41:07;10.15;;;6.10;;
72601;SDS011;60644;55.858;37.390;2022-07-25T06:43:37;10.32;;;5.90;;
72601;SDS011;60644;55.858;37.390;2022-07-25T06:46:03;10.32;;;6.00;;
72601;SDS011;60644;55.858;37.390;2022-07-25T06:48:29;8.30;;;5.67;;
72601;SDS011;60644;55.858;37.390;2022-07-25T06:50:55;8.85;;;5.90;;
72601;SDS011;60644;55.858;37.390;2022-07-25T06:53:21;9.65;;;5.78;;
72601;SDS011;60644;55.858;37.390;2022-07-25T06:55:47;9.27;;;5.70;;
72601;SDS011;60644;55.858;37.390;2022-07-25T06:58:13;10.35;;;6.80;;
72601;SDS011;60644;55.858;37.390;2022-07-25T07:00:39;8.07;;;6.07;;
72601;SDS011;60644;55.858;37.390;2022-07-25T07:03:05;8.05;;;6.20;;
72601;SDS011;60644;55.858;37.390;2022-07-25T07:05:32;8.33;;;5.60;;
72601;SDS011;60644;55.858;37.390;2022-07-25T07:08:01;9.13;;;5.70;;
72601;SDS011;60644;55.858;37.390;2022-07-25T07:10:28;9.40;;;5.68;;
72601;SDS011;60644;55.858;37.390;2022-07-25T07:13:04;9.57;;;6.13;;
72601;SDS011;60644;55.858;37.390;2022-07-25T07:15:32;8.95;;;5.38;;
72601;SDS011;60644;55.858;37.390;2022-07-25T07:17:59;8.40;;;5.20;;
72601;SDS011;60644;55.858;37.390;2022-07-25T07:20:28;9.25;;;5.30;;
72601;SDS011;60644;55.858;37.390;2022-07-25T07:22:54;8.50;;;5.40;;
72601;SDS011;60644;55.858;37.390;2022-07-25T07:25:20;11.07;;;6.32;;
72601;SDS011;60644;55.858;37.390;2022-07-25T07:27:48;10.13;;;5.65;;
72601;SDS011;60644;55.858;37.390;2022-07-25T07:30:15;7.80;;;5.47;;
72601;SDS011;60644;55.858;37.390;2022-07-25T07:32:42;9.55;;;6.15;;
72601;SDS011;60644;55.858;37.390;2022-07-25T07:35:08;10.30;;;6.05;;
72601;SDS011;60644;55.858;37.390;2022-07-25T07:37:35;9.90;;;6.32;;
72601;SDS011;60644;55.858;37.390;2022-07-25T07:40:02;9.88;;;5.82;;
72601;SDS011;60644;55.858;37.390;2022-07-25T07:42:39;8.60;;;5.90;;
72601;SDS011;60644;55.858;37.390;2022-07-25T07:45:13;9.55;;;6.25;;
72601;SDS011;60644;55.858;37.390;2022-07-25T07:47:47;7.95;;;5.60;;
72601;SDS011;60644;55.858;37.390;2022-07-25T07:50:15;9.27;;;6.03;;
72601;SDS011;60644;55.858;37.390;2022-07-25T07:52:42;10.75;;;6.88;;
72601;SDS011;60644;55.858;37.390;2022-07-25T07:55:10;10.00;;;6.10;;
72601;SDS011;60644;55.858;37.390;2022-07-25T07:57:55;11.07;;;5.85;;
72601;SDS011;60644;55.858;37.390;2022-07-25T08:00:21;10.02;;;5.90;;
72601;SDS011;60644;55.858;37.390;2022-07-25T08:02:51;9.50;;;5.90;;
72601;SDS011;60644;55.858;37.390;2022-07-25T08:05:19;12.35;;;5.97;;
72601;SDS011;60644;55.858;37.390;2022-07-25T08:07:53;11.13;;;6.30;;
72601;SDS011;60644;55.858;37.390;2022-07-25T08:10:21;8.57;;;5.60;;
72601;SDS011;60644;55.858;37.390;2022-07-25T08:12:51;8.38;;;5.80;;
72601;SDS011;60644;55.858;37.390;2022-07-25T08:15:18;8.95;;;5.93;;
72601;SDS011;60644;55.858;37.390;2022-07-25T08:17:45;9.20;;;5.95;;
72601;SDS011;60644;55.858;37.390;2022-07-25T08:20:13;10.73;;;6.37;;
72601;SDS011;60644;55.858;37.390;2022-07-25T08:22:41;9.35;;;6.05;;
72601;SDS011;60644;55.858;37.390;2022-07-25T08:25:09;8.65;;;5.88;;
72601;SDS011;60644;55.858;37.390;2022-07-25T08:27:37;9.48;;;6.28;;
72601;SDS011;60644;55.858;37.390;2022-07-25T08:30:04;8.30;;;6.50;;
72601;SDS011;60644;55.858;37.390;2022-07-25T08:32:31;10.02;;;5.78;;
72601;SDS011;60644;55.858;37.390;2022-07-25T08:34:57;11.45;;;7.30;;
72601;SDS011;60644;55.858;37.390;2022-07-25T08:37:24;13.43;;;6.53;;
72601;SDS011;60644;55.858;37.390;2022-07-25T08:39:50;14.02;;;7.00;;
72601;SDS011;60644;55.858;37.390;2022-07-25T08:42:17;10.77;;;6.13;;
72601;SDS011;60644;55.858;37.390;2022-07-25T08:44:48;10.57;;;5.78;;
72601;SDS011;60644;55.858;37.390;2022-07-25T08:47:21;8.85;;;5.15;;
72601;SDS011;60644;55.858;37.390;2022-07-25T08:49:47;8.75;;;5.80;;
72601;SDS011;60644;55.858;37.390;2022-07-25T08:52:14;8.32;;;5.20;;
72601;SDS011;60644;55.858;37.390;2022-07-25T08:54:40;8.27;;;5.80;;
72601;SDS011;60644;55.858;37.390;2022-07-25T08:57:08;10.68;;;5.50;;
72601;SDS011;60644;55.858;37.390;2022-07-25T08:59:34;8.50;;;5.47;;
72601;SDS011;60644;55.858;37.390;2022-07-25T09:01:59;8.68;;;5.00;;
72601;SDS011;60644;55.858;37.390;2022-07-25T09:04:28;8.07;;;5.63;;
72601;SDS011;60644;55.858;37.390;2022-07-25T09:06:55;9.05;;;4.93;;
72601;SDS011;60644;55.858;37.390;2022-07-25T09:09:30;7.47;;;4.47;;
72601;SDS011;60644;55.858;37.390;2022-07-25T09:11:58;7.15;;;4.57;;
72601;SDS011;60644;55.858;37.390;2022-07-25T09:14:24;6.72;;;4.28;;
72601;SDS011;60644;55.858;37.390;2022-07-25T09:16:51;8.77;;;4.73;;
72601;SDS011;60644;55.858;37.390;2022-07-25T09:19:19;8.57;;;4.82;;
72601;SDS011;60644;55.858;37.390;2022-07-25T09:22:02;8.15;;;4.43;;
72601;SDS011;60644;55.858;37.390;2022-07-25T09:24:30;7.00;;;4.40;;
72601;SDS011;60644;55.858;37.390;2022-07-25T09:26:57;6.97;;;4.13;;
72601;SDS011;60644;55.858;37.390;2022-07-25T09:29:26;8.30;;;4.80;;
72601;SDS011;60644;55.858;37.390;2022-07-25T09:31:57;8.00;;;4.60;;
72601;SDS011;60644;55.858;37.390;2022-07-25T09:34:37;7.38;;;4.10;;
72601;SDS011;60644;55.858;37.390;2022-07-25T09:37:05;6.57;;;3.80;;
72601;SDS011;60644;55.858;37.390;2022-07-25T09:39:43;7.03;;;3.88;;
72601;SDS011;60644;55.858;37.390;2022-07-25T09:44:39;6.38;;;3.80;;
72601;SDS011;60644;55.858;37.390;2022-07-25T09:47:12;8.73;;;3.60;;
72601;SDS011;60644;55.858;37.390;2022-07-25T09:49:40;6.07;;;3.70;;
72601;SDS011;60644;55.858;37.390;2022-07-25T09:52:07;7.70;;;4.03;;
72601;SDS011;60644;55.858;37.390;2022-07-25T09:54:34;7.32;;;4.03;;
72601;SDS011;60644;55.858;37.390;2022-07-25T09:57:00;5.95;;;3.47;;
72601;SDS011;60644;55.858;37.390;2022-07-25T09:59:26;7.25;;;4.60;;
72601;SDS011;60644;55.858;37.390;2022-07-25T10:02:32;7.30;;;3.88;;
72601;SDS011;60644;55.858;37.390;2022-07-25T10:04:46;6.23;;;4.00;;
72601;SDS011;60644;55.858;37.390;2022-07-25T10:07:18;8.48;;;4.20;;
72601;SDS011;60644;55.858;37.390;2022-07-25T10:09:46;7.60;;;4.18;;
72601;SDS011;60644;55.858;37.390;2022-07-25T10:12:17;7.72;;;4.80;;
72601;SDS011;60644;55.858;37.390;2022-07-25T10:17:30;10.57;;;4.50;;
72601;SDS011;60644;55.858;37.390;2022-07-25T10:19:57;7.35;;;4.57;;
72601;SDS011;60644;55.858;37.390;2022-07-25T10:25:20;6.70;;;4.30;;
72601;SDS011;60644;55.858;37.390;2022-07-25T10:27:47;6.53;;;3.80;;
72601;SDS011;60644;55.858;37.390;2022-07-25T10:30:20;6.33;;;4.10;;
72601;SDS011;60644;55.858;37.390;2022-07-25T10:32:49;6.53;;;4.68;;
72601;SDS011;60644;55.858;37.390;2022-07-25T10:35:28;6.72;;;4.05;;
72601;SDS011;60644;55.858;37.390;2022-07-25T10:37:57;8.02;;;4.50;;
72601;SDS011;60644;55.858;37.390;2022-07-25T10:40:24;6.45;;;4.32;;
72601;SDS011;60644;55.858;37.390;2022-07-25T10:42:55;7.10;;;4.37;;
72601;SDS011;60644;55.858;37.390;2022-07-25T10:45:25;7.30;;;4.28;;
72601;SDS011;60644;55.858;37.390;2022-07-25T10:47:55;6.57;;;4.25;;
72601;SDS011;60644;55.858;37.390;2022-07-25T10:50:21;7.65;;;4.25;;
72601;SDS011;60644;55.858;37.390;2022-07-25T10:52:56;6.20;;;4.40;;
72601;SDS011;60644;55.858;37.390;2022-07-25T10:55:24;6.57;;;4.20;;
72601;SDS011;60644;55.858;37.390;2022-07-25T10:58:00;7.18;;;4.53;;
72601;SDS011;60644;55.858;37.390;2022-07-25T11:00:27;7.22;;;4.80;;
72601;SDS011;60644;55.858;37.390;2022-07-25T11:02:54;6.50;;;4.30;;
72601;SDS011;60644;55.858;37.390;2022-07-25T11:05:21;7.72;;;4.40;;
72601;SDS011;60644;55.858;37.390;2022-07-25T11:07:51;6.40;;;4.23;;
72601;SDS011;60644;55.858;37.390;2022-07-25T11:10:24;7.05;;;4.57;;
72601;SDS011;60644;55.858;37.390;2022-07-25T11:12:52;9.90;;;4.80;;
72601;SDS011;60644;55.858;37.390;2022-07-25T11:15:22;6.50;;;4.40;;
72601;SDS011;60644;55.858;37.390;2022-07-25T11:17:50;7.00;;;4.47;;
72601;SDS011;60644;55.858;37.390;2022-07-25T11:20:17;7.03;;;3.90;;
72601;SDS011;60644;55.858;37.390;2022-07-25T11:22:50;6.70;;;3.95;;
72601;SDS011;60644;55.858;37.390;2022-07-25T11:25:21;6.30;;;4.07;;
72601;SDS011;60644;55.858;37.390;2022-07-25T11:27:57;8.35;;;4.30;;
72601;SDS011;60644;55.858;37.390;2022-07-25T11:30:25;7.30;;;4.43;;
72601;SDS011;60644;55.858;37.390;2022-07-25T11:32:55;6.53;;;4.23;;
72601;SDS011;60644;55.858;37.390;2022-07-25T11:35:26;7.45;;;4.18;;
72601;SDS011;60644;55.858;37.390;2022-07-25T11:37:54;6.95;;;3.80;;
72601;SDS011;60644;55.858;37.390;2022-07-25T11:40:21;7.30;;;4.10;;
72601;SDS011;60644;55.858;37.390;2022-07-25T11:42:51;6.90;;;4.00;;
72601;SDS011;60644;55.858;37.390;2022-07-25T11:45:21;5.90;;;4.10;;
72601;SDS011;60644;55.858;37.390;2022-07-25T11:48:02;7.15;;;4.13;;
72601;SDS011;60644;55.858;37.390;2022-07-25T11:50:34;7.40;;;4.05;;
72601;SDS011;60644;55.858;37.390;2022-07-25T11:53:06;8.90;;;4.40;;
72601;SDS011;60644;55.858;37.390;2022-07-25T11:55:39;7.00;;;3.90;;
72601;SDS011;60644;55.858;37.390;2022-07-25T11:58:07;6.60;;;4.20;;
72601;SDS011;60644;55.858;37.390;2022-07-25T12:00:34;6.68;;;4.20;;
72601;SDS011;60644;55.858;37.390;2022-07-25T12:03:08;6.53;;;4.10;;
72601;SDS011;60644;55.858;37.390;2022-07-25T12:05:35;6.47;;;3.75;;
72601;SDS011;60644;55.858;37.390;2022-07-25T12:08:08;6.75;;;3.75;;
72601;SDS011;60644;55.858;37.390;2022-07-25T12:10:38;5.50;;;3.87;;
72601;SDS011;60644;55.858;37.390;2022-07-25T12:13:05;6.60;;;4.10;;
72601;SDS011;60644;55.858;37.390;2022-07-25T12:15:37;7.70;;;3.90;;
72601;SDS011;60644;55.858;37.390;2022-07-25T12:18:05;6.60;;;4.07;;
72601;SDS011;60644;55.858;37.390;2022-07-25T12:20:34;6.28;;;4.05;;
72601;SDS011;60644;55.858;37.390;2022-07-25T12:23:04;7.13;;;4.20;;
72601;SDS011;60644;55.858;37.390;2022-07-25T12:25:34;6.45;;;3.85;;
72601;SDS011;60644;55.858;37.390;2022-07-25T12:28:01;6.25;;;4.35;;
72601;SDS011;60644;55.858;37.390;2022-07-25T12:30:29;6.93;;;4.22;;
72601;SDS011;60644;55.858;37.390;2022-07-25T12:32:56;7.70;;;4.38;;
72601;SDS011;60644;55.858;37.390;2022-07-25T12:35:23;6.30;;;3.60;;
72601;SDS011;60644;55.858;37.390;2022-07-25T12:37:50;7.95;;;4.00;;
72601;SDS011;60644;55.858;37.390;2022-07-25T12:40:17;6.07;;;4.18;;
72601;SDS011;60644;55.858;37.390;2022-07-25T12:42:44;6.07;;;4.20;;
72601;SDS011;60644;55.858;37.390;2022-07-25T12:45:10;9.10;;;3.70;;
72601;SDS011;60644;55.858;37.390;2022-07-25T12:47:37;6.20;;;3.70;;
72601;SDS011;60644;55.858;37.390;2022-07-25T12:50:03;6.50;;;3.42;;
72601;SDS011;60644;55.858;37.390;2022-07-25T12:52:30;7.40;;;3.72;;
72601;SDS011;60644;55.858;37.390;2022-07-25T12:54:56;7.65;;;3.83;;
72601;SDS011;60644;55.858;37.390;2022-07-25T12:57:22;5.60;;;3.88;;
72601;SDS011;60644;55.858;37.390;2022-07-25T12:59:49;7.07;;;4.03;;
72601;SDS011;60644;55.858;37.390;2022-07-25T13:02:15;6.43;;;4.20;;
72601;SDS011;60644;55.858;37.390;2022-07-25T13:04:41;5.80;;;3.40;;
72601;SDS011;60644;55.858;37.390;2022-07-25T13:07:07;6.53;;;3.95;;
72601;SDS011;60644;55.858;37.390;2022-07-25T13:09:33;5.93;;;3.47;;
72601;SDS011;60644;55.858;37.390;2022-07-25T13:11:59;7.10;;;3.83;;
72601;SDS011;60644;55.858;37.390;2022-07-25T13:14:25;6.20;;;3.60;;
72601;SDS011;60644;55.858;37.390;2022-07-25T13:16:51;5.35;;;3.45;;
72601;SDS011;60644;55.858;37.390;2022-07-25T13:19:17;5.80;;;3.30;;
72601;SDS011;60644;55.858;37.390;2022-07-25T13:21:43;6.70;;;3.45;;
72601;SDS011;60644;55.858;37.390;2022-07-25T13:24:10;6.30;;;3.80;;
72601;SDS011;60644;55.858;37.390;2022-07-25T13:26:36;6.50;;;3.67;;
72601;SDS011;60644;55.858;37.390;2022-07-25T13:29:04;6.70;;;4.00;;
72601;SDS011;60644;55.858;37.390;2022-07-25T13:31:36;5.93;;;3.65;;
72601;SDS011;60644;55.858;37.390;2022-07-25T13:34:04;6.88;;;3.92;;
72601;SDS011;60644;55.858;37.390;2022-07-25T13:36:30;5.70;;;3.20;;
72601;SDS011;60644;55.858;37.390;2022-07-25T13:38:57;5.55;;;3.60;;
72601;SDS011;60644;55.858;37.390;2022-07-25T13:41:23;8.13;;;3.80;;
72601;SDS011;60644;55.858;37.390;2022-07-25T13:43:50;5.93;;;3.75;;
72601;SDS011;60644;55.858;37.390;2022-07-25T13:46:16;6.10;;;3.37;;
72601;SDS011;60644;55.858;37.390;2022-07-25T13:48:42;7.25;;;4.18;;
72601;SDS011;60644;55.858;37.390;2022-07-25T13:51:08;6.78;;;3.25;;
72601;SDS011;60644;55.858;37.390;2022-07-25T13:53:34;6.78;;;3.20;;
72601;SDS011;60644;55.858;37.390;2022-07-25T13:56:00;6.47;;;3.43;;
72601;SDS011;60644;55.858;37.390;2022-07-25T13:58:26;6.32;;;3.38;;
72601;SDS011;60644;55.858;37.390;2022-07-25T14:00:52;7.30;;;3.50;;
72601;SDS011;60644;55.858;37.390;2022-07-25T14:03:19;5.75;;;3.38;;
72601;SDS011;60644;55.858;37.390;2022-07-25T14:05:45;5.95;;;3.50;;
72601;SDS011;60644;55.858;37.390;2022-07-25T14:08:11;7.33;;;3.80;;
72601;SDS011;60644;55.858;37.390;2022-07-25T14:10:37;6.28;;;3.35;;
72601;SDS011;60644;55.858;37.390;2022-07-25T14:13:03;6.75;;;3.35;;
72601;SDS011;60644;55.858;37.390;2022-07-25T14:15:29;6.30;;;3.23;;
72601;SDS011;60644;55.858;37.390;2022-07-25T14:17:57;7.10;;;4.28;;
72601;SDS011;60644;55.858;37.390;2022-07-25T14:20:23;9.82;;;8.13;;
72601;SDS011;60644;55.858;37.390;2022-07-25T14:22:49;6.07;;;3.83;;
72601;SDS011;60644;55.858;37.390;2022-07-25T14:25:15;5.63;;;3.20;;
72601;SDS011;60644;55.858;37.390;2022-07-25T14:27:41;6.17;;;3.37;;
72601;SDS011;60644;55.858;37.390;2022-07-25T14:30:09;9.18;;;3.22;;
72601;SDS011;60644;55.858;37.390;2022-07-25T14:32:35;5.70;;;3.20;;
72601;SDS011;60644;55.858;37.390;2022-07-25T14:35:02;5.20;;;3.10;;
72601;SDS011;60644;55.858;37.390;2022-07-25T14:37:30;7.53;;;2.83;;
72601;SDS011;60644;55.858;37.390;2022-07-25T14:39:57;7.50;;;3.47;;